Time;durP1;ratioP1;P1;durP2;ratioP2;P2;SDS_P1;SDS_P2;PMS_P1;PMS_P2;Temp;Humidity;BMP_temperature;BMP_pressure;BME280_temperature;BME280_humidity;BME280_pressure;Samples;Min_cycle;Max_cycle;Signal;HPM_P1;HPM_P2
2023/01/21 00:01:41;;;;;;;31.23;16.20;;;;;;;3.12;59.35;99129.28;5281564;27;20113;-91
2023/01/21 00:04:07;;;;;;;29.35;15.38;;;;;;;3.07;59.34;99133.59;5281695;27;20100;-91
2023/01/21 00:06:34;;;;;;;32.22;15.75;;;;;;;3.12;59.35;99134.41;5281346;27;20057;-91
2023/01/21 00:09:02;;;;;;;29.55;15.30;;;;;;;2.97;59.35;99124.28;5299847;27;20417;-91
2023/01/21 00:11:28;;;;;;;31.35;15.40;;;;;;;2.97;59.34;99127.72;5281753;27;20068;-93
2023/01/21 00:13:53;;;;;;;32.25;15.20;;;;;;;2.97;59.34;99121.72;5280556;27;20116;-90
2023/01/21 00:16:19;;;;;;;31.33;14.13;;;;;;;3.10;59.36;99132.72;5281391;27;20057;-91
2023/01/21 00:18:46;;;;;;;30.73;15.35;;;;;;;3.03;59.35;99137.06;5280305;27;20067;-91
2023/01/21 00:21:12;;;;;;;32.63;14.87;;;;;;;3.10;59.35;99136.16;5282427;27;20115;-92
2023/01/21 00:23:37;;;;;;;27.13;14.38;;;;;;;3.05;59.34;99146.47;5281984;27;20113;-91
2023/01/21 00:26:04;;;;;;;27.50;13.68;;;;;;;2.98;59.34;99151.69;5282055;27;20092;-92
2023/01/21 00:28:31;;;;;;;26.95;14.32;;;;;;;3.03;59.35;99152.50;5282121;27;20058;-92
2023/01/21 00:30:58;;;;;;;29.67;14.68;;;;;;;3.12;59.35;99146.41;5282034;27;20123;-91
2023/01/21 00:33:23;;;;;;;29.37;13.70;;;;;;;3.18;59.35;99154.91;5282053;27;20829;-89
2023/01/21 00:36:05;;;;;;;27.42;13.95;;;;;;;3.15;59.35;99151.53;5282142;27;20057;-92
2023/01/21 00:38:31;;;;;;;29.48;14.77;;;;;;;3.06;59.35;99155.87;5282317;27;20111;-91
2023/01/21 00:41:08;;;;;;;28.38;14.07;;;;;;;2.91;59.33;99140.66;5282468;27;20345;-91
2023/01/21 00:43:33;;;;;;;29.65;14.63;;;;;;;3.09;59.36;99149.88;5281959;27;20113;-92
2023/01/21 00:45:59;;;;;;;25.80;13.73;;;;;;;3.18;59.35;99143.75;5282120;27;20071;-91
2023/01/21 00:48:24;;;;;;;25.42;14.23;;;;;;;3.08;59.34;99145.59;5282019;27;20091;-90
2023/01/21 00:50:50;;;;;;;30.40;15.05;;;;;;;2.92;59.33;99138.94;5282402;27;20075;-92
2023/01/21 00:53:19;;;;;;;28.73;15.00;;;;;;;3.13;59.35;99141.25;5282192;27;20123;-92
2023/01/21 00:55:44;;;;;;;28.58;15.05;;;;;;;3.20;59.36;99134.31;5282257;27;20121;-91
2023/01/21 00:58:10;;;;;;;29.08;15.00;;;;;;;3.17;59.34;99137.78;5282358;27;20104;-92
2023/01/21 01:00:35;;;;;;;31.02;14.98;;;;;;;3.21;59.35;99131.72;5280412;27;20068;-93
2023/01/21 01:03:01;;;;;;;29.65;15.60;;;;;;;3.22;59.35;99130.84;5281335;27;20087;-90
2023/01/21 01:05:26;;;;;;;29.30;15.00;;;;;;;3.25;59.36;99132.53;5281525;27;20103;-90
2023/01/21 01:07:52;;;;;;;32.05;16.35;;;;;;;3.26;59.36;99129.94;5281822;27;20096;-92
2023/01/21 01:10:17;;;;;;;30.88;14.32;;;;;;;3.28;59.36;99132.47;5281950;27;20100;-92
2023/01/21 01:12:43;;;;;;;28.67;13.95;;;;;;;3.15;59.35;99141.22;5281526;27;20138;-91
2023/01/21 01:15:09;;;;;;;32.78;15.85;;;;;;;3.13;59.35;99151.53;5281703;27;20082;-92
2023/01/21 01:17:34;;;;;;;32.42;16.17;;;;;;;3.18;59.36;99159.19;5282307;27;20056;-92
2023/01/21 01:20:00;;;;;;;29.63;14.93;;;;;;;3.06;59.34;99150.75;5282233;27;20065;-93
2023/01/21 01:22:25;;;;;;;31.15;15.25;;;;;;;3.06;59.35;99150.75;5282366;27;20112;-92
2023/01/21 01:24:51;;;;;;;28.02;15.32;;;;;;;3.00;59.34;99163.66;5282144;27;20053;-92
2023/01/21 01:27:16;;;;;;;47.33;20.33;;;;;;;2.99;59.34;99155.97;5282430;27;20072;-92
2023/01/21 01:29:41;;;;;;;40.25;20.00;;;;;;;2.94;59.33;99150.03;5282464;27;20108;-92
2023/01/21 01:32:07;;;;;;;37.72;18.77;;;;;;;2.97;59.34;99153.41;5282393;27;20106;-92
2023/01/21 01:34:32;;;;;;;34.25;18.42;;;;;;;2.95;59.35;99151.75;5282175;27;20073;-92
2023/01/21 01:36:58;;;;;;;34.78;15.52;;;;;;;3.19;59.35;99145.47;5283558;27;20057;-90
2023/01/21 01:39:23;;;;;;;31.02;15.80;;;;;;;3.12;59.35;99146.41;5301034;27;20104;-92
2023/01/21 01:41:49;;;;;;;29.37;14.48;;;;;;;2.99;59.34;99143.12;5282040;27;20058;-93
2023/01/21 01:44:52;;;;;;;30.17;15.40;;;;;;;3.10;59.35;99131.00;5281374;27;20417;-92
2023/01/21 01:47:18;;;;;;;30.88;15.32;;;;;;;3.03;59.35;99142.22;5300496;27;20426;-93
2023/01/21 01:49:43;;;;;;;31.70;15.35;;;;;;;3.30;59.35;99138.47;5282188;27;20106;-92
2023/01/21 01:52:09;;;;;;;28.15;14.15;;;;;;;3.23;59.35;99136.84;5282007;27;20120;-92
2023/01/21 01:54:36;;;;;;;27.33;13.57;;;;;;;3.41;59.37;99143.47;5282085;27;20057;-92
2023/01/21 01:57:07;;;;;;;27.08;13.13;;;;;;;3.32;59.37;99141.88;5263966;27;20041;-93
2023/01/21 01:59:35;;;;;;;25.90;12.60;;;;;;;3.31;59.36;99135.91;5282296;27;20057;-92
2023/01/21 02:02:05;;;;;;;26.95;13.35;;;;;;;3.32;59.37;99139.31;5282292;27;20065;-92
2023/01/21 02:04:33;;;;;;;26.80;13.50;;;;;;;3.39;59.37;99136.62;5281633;27;20052;-92
2023/01/21 02:06:58;;;;;;;30.95;12.82;;;;;;;3.55;59.37;99136.41;5281884;27;20752;-92
2023/01/21 02:09:28;;;;;;;27.02;13.07;;;;;;;3.28;59.36;99133.34;5281759;27;20065;-92
2023/01/21 02:12:00;;;;;;;28.58;14.27;;;;;;;3.16;59.35;99132.66;5282672;27;20081;-92
2023/01/21 02:14:29;;;;;;;26.05;13.88;;;;;;;3.30;59.36;99128.16;5281767;27;20120;-92
2023/01/21 02:17:32;;;;;;;24.55;12.93;;;;;;;3.33;59.37;99130.72;5282358;27;20053;-92
2023/01/21 02:20:40;;;;;;;23.90;11.50;;;;;;;3.31;59.36;99133.31;5301127;27;20064;-92
2023/01/21 02:23:20;;;;;;;29.37;12.90;;;;;;;3.36;59.36;99134.09;5301265;27;20084;-92
2023/01/21 02:26:04;;;;;;;28.15;12.85;;;;;;;3.33;59.36;99131.56;5283679;27;20053;-92
2023/01/21 02:28:48;;;;;;;27.77;12.70;;;;;;;3.25;59.36;99138.53;5301028;27;20050;-93
2023/01/21 02:31:40;;;;;;;27.67;12.90;;;;;;;3.35;59.36;99134.13;5301196;27;20053;-93
2023/01/21 02:34:44;;;;;;;28.10;13.45;;;;;;;3.44;59.36;99128.00;5291674;27;20485;-94
2023/01/21 02:37:35;;;;;;;25.17;13.48;;;;;;;3.36;59.36;99138.41;5300359;27;20067;-93
2023/01/21 02:40:33;;;;;;;27.08;13.27;;;;;;;3.46;59.38;99139.97;5282352;27;20045;-92
2023/01/21 02:43:21;;;;;;;;;;;;;;;;;;;;;
2023/01/21 02:45:54;;;;;;;28.52;13.30;;;;;;;3.34;59.37;99141.00;5300445;27;35275;-92
2023/01/21 02:48:56;;;;;;;25.98;13.25;;;;;;;3.34;59.36;99138.44;5282640;27;20823;-93
2023/01/21 02:51:24;;;;;;;23.85;12.93;;;;;;;3.42;59.37;99140.03;5282787;27;20405;-92
2023/01/21 02:53:49;;;;;;;25.75;13.00;;;;;;;3.29;59.35;99131.63;5284445;27;20061;-93
2023/01/21 02:56:17;;;;;;;31.25;14.52;;;;;;;3.12;59.35;99131.84;5282666;27;20102;-93
2023/01/21 02:58:49;;;;;;;29.23;13.77;;;;;;;3.18;59.35;99120.62;5282658;27;20064;-92
2023/01/21 03:01:38;;;;;;;26.33;12.93;;;;;;;3.23;59.35;99123.97;5282916;27;20072;-92
2023/01/21 03:04:13;;;;;;;30.12;14.13;;;;;;;3.20;59.36;99117.16;5300988;27;20227;-91
2023/01/21 03:06:47;;;;;;;26.10;13.00;;;;;;;3.15;59.35;99116.37;5300809;27;20061;-92
2023/01/21 03:09:20;;;;;;;30.20;14.50;;;;;;;3.03;59.35;99113.94;5300035;27;20725;-92
2023/01/21 03:11:55;;;;;;;27.33;13.60;;;;;;;2.97;59.35;99116.59;5281891;27;20049;-92
2023/01/21 03:17:17;;;;;;;33.53;16.08;;;;;;;3.17;59.34;99119.78;5286375;27;20063;-91
2023/01/21 03:19:50;;;;;;;33.08;14.82;;;;;;;3.33;59.36;99125.59;5283363;27;20068;-92
2023/01/21 03:22:28;;;;;;;27.33;13.25;;;;;;;3.27;59.36;99131.63;5282647;27;20041;-92
2023/01/21 03:24:53;;;;;;;32.00;15.75;;;;;;;3.36;59.36;99138.41;5283648;27;20071;-92
2023/01/21 03:34:49;;;;;;;30.58;14.65;;;;;;;3.44;59.37;99135.72;5148734;27;20054;-93
2023/01/21 03:37:41;;;;;;;30.42;15.07;;;;;;;3.49;59.37;99139.94;5176002;27;20110;-92
2023/01/21 03:40:14;;;;;;;30.48;15.35;;;;;;;3.37;59.36;99143.53;5174448;27;20498;-93
2023/01/21 03:42:44;;;;;;;31.10;14.95;;;;;;;3.32;59.36;99147.87;5247893;27;20071;-93
2023/01/21 03:46:29;;;;;;;30.40;15.32;;;;;;;3.33;59.37;99157.31;5221290;27;20524;-94
2023/01/21 03:49:21;;;;;;;;;;;;;;;;;;;;;
2023/01/21 03:52:18;;;;;;;34.47;15.55;;;;;;;3.34;59.36;99169.28;5300759;27;36560;-93
2023/01/21 03:55:05;;;;;;;33.90;15.32;;;;;;;3.34;59.36;99165.88;5294261;27;20058;-93
2023/01/21 04:01:10;;;;;;;31.48;15.75;;;;;;;3.14;59.35;99168.66;5289260;27;20436;-94
2023/01/21 04:03:58;;;;;;;32.85;15.65;;;;;;;3.23;59.35;99173.69;5283054;27;20071;-93
2023/01/21 04:06:32;;;;;;;38.47;17.17;;;;;;;3.27;59.36;99170.22;5282180;27;20097;-92
2023/01/21 04:09:50;;;;;;;;;;;;;;;;;;;;;
2023/01/21 04:13:03;;;;;;;;;;;;;;;;;;;;;
2023/01/21 04:15:29;;;;;;;32.15;15.38;;;;;;;3.45;59.36;99196.59;5301102;27;34201;-92
2023/01/21 04:17:55;;;;;;;38.78;17.92;;;;;;;3.24;59.35;99195.13;5282413;27;20306;-92
2023/01/21 04:20:24;;;;;;;34.00;16.42;;;;;;;3.55;59.38;99193.03;5283203;27;20053;-92
2023/01/21 04:34:38;;;;;;;31.25;14.23;;;;;;;3.78;59.39;99196.16;5191720;27;20138;-93
2023/01/21 04:43:01;;;;;;;30.02;14.50;;;;;;;3.60;59.38;99219.56;5229894;27;21139;-93
2023/01/21 04:45:26;;;;;;;33.92;15.95;;;;;;;3.62;59.38;99225.56;5246416;27;20040;-92
2023/01/21 04:47:52;;;;;;;33.25;15.65;;;;;;;3.57;59.37;99230.75;5246533;27;20373;-91
2023/01/21 04:50:21;;;;;;;33.30;15.70;;;;;;;3.37;59.36;99235.28;5246252;27;20105;-93
2023/01/21 04:53:07;;;;;;;34.15;15.10;;;;;;;3.68;59.39;99226.31;5246209;27;20049;-93
2023/01/21 04:55:32;;;;;;;31.37;14.75;;;;;;;3.55;59.38;99229.06;5264053;27;20049;-93
2023/01/21 04:57:58;;;;;;;29.83;15.48;;;;;;;3.49;59.37;99227.41;5245960;27;20071;-93
2023/01/21 05:00:29;;;;;;;49.65;22.48;;;;;;;3.53;59.38;99229.06;5263717;27;20158;-93
2023/01/21 05:02:55;;;;;;;34.58;16.37;;;;;;;3.44;59.36;99234.34;5245893;27;20053;-92
2023/01/21 05:05:23;;;;;;;32.38;14.63;;;;;;;3.49;59.37;99229.13;5263518;27;20044;-93
2023/01/21 05:11:23;;;;;;;33.75;14.75;;;;;;;3.34;59.36;99238.75;5208181;27;20076;-95
2023/01/21 05:13:48;;;;;;;26.98;14.07;;;;;;;3.41;59.37;99243.81;5215842;27;20154;-91
2023/01/21 05:16:17;;;;;;;34.63;14.73;;;;;;;3.48;59.38;99240.28;5254407;27;20059;-94
2023/01/21 05:18:47;;;;;;;32.08;14.05;;;;;;;3.44;59.37;99249.78;5245867;27;20060;-91
2023/01/21 05:21:15;;;;;;;33.47;15.13;;;;;;;3.36;59.36;99238.72;5246783;27;20080;-90
2023/01/21 05:23:41;;;;;;;27.42;13.48;;;;;;;3.42;59.37;99240.38;5246059;27;20131;-92
2023/01/21 05:26:06;;;;;;;30.15;13.60;;;;;;;3.22;59.35;99259.44;5246193;27;20151;-92
2023/01/21 05:28:32;;;;;;;31.50;14.35;;;;;;;3.35;59.36;99260.19;5246223;27;20087;-92
2023/01/21 05:31:01;;;;;;;30.23;14.25;;;;;;;3.34;59.37;99263.63;5246223;27;20124;-92
2023/01/21 05:33:32;;;;;;;26.87;13.50;;;;;;;3.30;59.35;99267.91;5246517;27;20340;-89
2023/01/21 05:35:58;;;;;;;34.65;14.60;;;;;;;3.39;59.37;99265.25;5246401;27;20045;-89
2023/01/21 05:38:24;;;;;;;27.23;13.18;;;;;;;3.24;59.36;99268.00;5246290;27;20060;-90
2023/01/21 05:40:49;;;;;;;28.75;13.90;;;;;;;3.41;59.37;99252.38;5246127;27;20440;-91
2023/01/21 05:43:15;;;;;;;30.00;14.15;;;;;;;3.30;59.35;99260.19;5256058;27;20303;-91
2023/01/21 05:45:40;;;;;;;28.87;14.85;;;;;;;3.27;59.35;99267.94;5267991;27;20063;-90
2023/01/21 05:48:08;;;;;;;29.75;14.98;;;;;;;3.39;59.37;99267.84;5267899;27;20416;-91
2023/01/21 05:50:33;;;;;;;29.45;15.30;;;;;;;3.44;59.36;99272.94;5268736;27;20589;-91
2023/01/21 05:52:59;;;;;;;26.55;13.62;;;;;;;3.43;59.36;99273.78;5305115;27;20052;-91
2023/01/21 05:55:24;;;;;;;28.48;14.23;;;;;;;3.46;59.38;99278.91;5286794;27;20102;-91
2023/01/21 05:57:50;;;;;;;31.17;14.57;;;;;;;3.23;59.35;99278.28;5268953;27;20106;-91
2023/01/21 06:00:16;;;;;;;29.15;14.10;;;;;;;3.33;59.37;99278.19;5268223;27;20124;-89
2023/01/21 06:02:41;;;;;;;28.85;14.35;;;;;;;3.46;59.38;99280.62;5268266;27;20067;-90
2023/01/21 06:05:07;;;;;;;24.67;13.98;;;;;;;3.46;59.38;99280.62;5267741;27;20093;-90
2023/01/21 06:07:32;;;;;;;32.40;13.98;;;;;;;3.57;59.37;99294.25;5268243;27;20417;-90
2023/01/21 06:09:57;;;;;;;31.50;15.40;;;;;;;3.41;59.37;99300.41;5268492;27;20120;-91
2023/01/21 06:12:23;;;;;;;28.23;13.40;;;;;;;3.35;59.36;99302.19;5268237;27;20088;-89
2023/01/21 06:14:50;;;;;;;33.42;14.10;;;;;;;3.64;59.38;99296.72;5286755;27;20049;-91
2023/01/21 06:17:15;;;;;;;26.75;13.48;;;;;;;3.54;59.38;99289.97;5286233;27;20441;-92
2023/01/21 06:19:41;;;;;;;27.25;14.05;;;;;;;3.67;59.38;99295.84;5268224;27;20116;-91
2023/01/21 06:22:08;;;;;;;26.15;13.88;;;;;;;3.77;59.39;99292.25;5267856;27;20100;-90
2023/01/21 06:24:34;;;;;;;26.75;13.40;;;;;;;3.58;59.37;99303.66;5267223;27;20115;-91
2023/01/21 06:26:59;;;;;;;27.55;13.55;;;;;;;3.77;59.39;99301.72;5268028;27;20070;-89
2023/01/21 06:29:25;;;;;;;27.35;12.63;;;;;;;3.72;59.38;99314.63;5285669;27;20088;-89
2023/01/21 06:31:50;;;;;;;28.30;13.75;;;;;;;3.73;59.38;99315.50;5267681;27;20091;-90
2023/01/21 06:34:16;;;;;;;26.73;14.02;;;;;;;3.81;59.39;99327.44;5268194;27;20052;-90
2023/01/21 06:36:41;;;;;;;23.73;13.57;;;;;;;3.82;59.38;99344.56;5268452;27;20110;-88
2023/01/21 06:39:08;;;;;;;27.48;13.55;;;;;;;3.94;59.40;99330.69;5268652;27;20061;-88
2023/01/21 06:41:34;;;;;;;25.67;14.35;;;;;;;3.82;59.38;99323.13;5268427;27;20049;-90
2023/01/21 06:43:59;;;;;;;28.48;13.05;;;;;;;3.89;59.39;99332.47;5285754;27;20322;-90
2023/01/21 06:46:24;;;;;;;28.95;14.90;;;;;;;4.02;59.40;99336.59;5266404;27;20068;-90
2023/01/21 06:48:50;;;;;;;27.67;13.80;;;;;;;3.93;59.39;99332.41;5266812;27;20057;-90
2023/01/21 06:51:16;;;;;;;32.75;14.48;;;;;;;3.96;59.39;99328.94;5266953;27;20106;-90
2023/01/21 06:53:41;;;;;;;27.80;13.55;;;;;;;3.93;59.39;99332.41;5266767;27;20053;-90
2023/01/21 06:56:07;;;;;;;27.02;14.18;;;;;;;3.91;59.40;99333.31;5266886;27;20177;-89
2023/01/21 06:58:32;;;;;;;25.98;12.68;;;;;;;3.82;59.39;99338.56;5267162;27;20070;-90
2023/01/21 07:01:00;;;;;;;28.62;14.50;;;;;;;4.00;59.40;99334.03;5285024;27;20087;-91
2023/01/21 07:03:25;;;;;;;28.77;14.40;;;;;;;3.86;59.39;99342.81;5268661;27;20098;-90
2023/01/21 07:05:51;;;;;;;29.45;13.75;;;;;;;3.96;59.39;99342.69;5267834;27;20120;-90
2023/01/21 07:08:16;;;;;;;33.20;14.40;;;;;;;3.89;59.39;99343.63;5268073;27;20111;-90
2023/01/21 07:10:42;;;;;;;23.77;12.50;;;;;;;3.68;59.38;99351.59;5304460;27;20052;-90
2023/01/21 07:13:07;;;;;;;29.05;13.85;;;;;;;3.60;59.37;99348.25;5267867;27;20095;-90
2023/01/21 07:15:33;;;;;;;30.20;14.07;;;;;;;3.64;59.38;99352.50;5268495;27;20100;-91
2023/01/21 07:17:58;;;;;;;28.62;14.68;;;;;;;3.77;59.39;99360.91;5303964;27;20062;-90
2023/01/21 07:20:24;;;;;;;28.38;14.13;;;;;;;3.81;59.38;99365.19;5267916;27;20071;-90
2023/01/21 07:22:50;;;;;;;28.30;13.95;;;;;;;3.83;59.38;99372.03;5268191;27;20061;-91
2023/01/21 07:25:15;;;;;;;29.92;14.82;;;;;;;3.88;59.39;99379.69;5268198;27;20425;-90
2023/01/21 07:27:41;;;;;;;27.87;14.60;;;;;;;4.15;59.41;99386.25;5267754;27;20061;-90
2023/01/21 07:30:07;;;;;;;29.40;14.18;;;;;;;4.08;59.40;99400.06;5267947;27;20096;-90
2023/01/21 07:32:32;;;;;;;29.08;14.00;;;;;;;4.17;59.41;99398.22;5268486;27;20058;-89
2023/01/21 07:34:58;;;;;;;27.05;13.13;;;;;;;4.34;59.42;99400.63;5267881;27;20053;-90
2023/01/21 07:37:23;;;;;;;26.45;13.82;;;;;;;4.27;59.42;99407.56;5304415;27;20096;-90
2023/01/21 07:39:49;;;;;;;30.23;14.70;;;;;;;4.13;59.41;99409.44;5286051;27;20064;-90
2023/01/21 07:42:14;;;;;;;27.08;13.25;;;;;;;4.18;59.41;99415.41;5267968;27;20096;-90
2023/01/21 07:44:40;;;;;;;29.63;13.30;;;;;;;4.25;59.41;99414.44;5269145;27;20079;-90
2023/01/21 07:47:05;;;;;;;28.55;13.52;;;;;;;4.20;59.40;99415.38;5268848;27;20095;-90
2023/01/21 07:49:31;;;;;;;26.95;13.15;;;;;;;4.23;59.42;99412.75;5268155;27;20104;-90
2023/01/21 07:51:56;;;;;;;28.92;14.10;;;;;;;4.36;59.42;99405.75;5268237;27;20112;-90
2023/01/21 07:54:22;;;;;;;27.00;13.60;;;;;;;4.50;59.44;99417.59;5267876;27;20329;-90
2023/01/21 07:56:47;;;;;;;25.20;13.60;;;;;;;4.54;59.43;99416.69;5267870;27;20065;-90
2023/01/21 07:59:13;;;;;;;27.42;12.52;;;;;;;4.49;59.44;99423.59;5267907;27;20049;-90
2023/01/21 08:01:39;;;;;;;24.23;12.57;;;;;;;4.62;59.43;99421.72;5267963;27;20049;-90
2023/01/21 08:04:06;;;;;;;28.65;13.55;;;;;;;4.63;59.43;99432.00;5267795;27;20112;-89
2023/01/21 08:06:32;;;;;;;25.92;13.80;;;;;;;4.73;59.44;99431.88;5268457;27;20421;-90
2023/01/21 08:08:57;;;;;;;27.05;13.07;;;;;;;4.62;59.44;99432.03;5268756;27;20052;-90
2023/01/21 08:11:22;;;;;;;26.27;13.55;;;;;;;4.60;59.43;99429.47;5267808;27;20075;-90
2023/01/21 08:13:49;;;;;;;33.03;16.12;;;;;;;4.59;59.43;99430.34;5268107;27;20100;-90
2023/01/21 08:16:14;;;;;;;33.25;16.02;;;;;;;4.64;59.44;99432.88;5267833;27;20137;-90
2023/01/21 08:18:40;;;;;;;31.45;16.20;;;;;;;4.67;59.44;99442.28;5268357;27;20387;-90
2023/01/21 08:21:05;;;;;;;30.48;14.70;;;;;;;4.64;59.44;99438.03;5304039;27;20357;-90
2023/01/21 08:23:31;;;;;;;32.85;18.33;;;;;;;4.72;59.44;99431.03;5269480;27;20061;-89
2023/01/21 08:25:56;;;;;;;30.73;17.52;;;;;;;4.70;59.44;99445.66;5267847;27;20075;-90
2023/01/21 08:28:22;;;;;;;32.13;14.80;;;;;;;4.68;59.44;99434.53;5268476;27;20080;-90
2023/01/21 08:30:47;;;;;;;29.10;13.52;;;;;;;4.69;59.44;99431.06;5267957;27;20391;-90
2023/01/21 08:33:13;;;;;;;31.10;15.05;;;;;;;4.72;59.43;99440.50;5267810;27;20056;-90
2023/01/21 08:35:38;;;;;;;29.05;13.77;;;;;;;4.76;59.44;99434.44;5267788;27;20052;-90
2023/01/21 08:38:04;;;;;;;34.78;15.20;;;;;;;4.99;59.45;99434.97;5267735;27;20105;-89
2023/01/21 08:40:29;;;;;;;28.75;13.57;;;;;;;4.86;59.44;99454.91;5267893;27;20061;-90
2023/01/21 08:43:01;;;;;;;26.15;14.75;;;;;;;4.99;59.45;99454.75;5267578;27;20119;-90
2023/01/21 08:45:27;;;;;;;27.00;14.35;;;;;;;4.84;59.45;99455.81;5268053;27;20440;-90
2023/01/21 08:47:52;;;;;;;28.20;13.45;;;;;;;4.79;59.45;99455.88;5267714;27;20057;-90
2023/01/21 08:50:18;;;;;;;28.60;14.60;;;;;;;5.12;59.47;99445.94;5267735;27;20053;-90
2023/01/21 08:52:50;;;;;;;29.87;14.85;;;;;;;5.12;59.47;99449.38;5267990;27;20106;-90
2023/01/21 08:55:15;;;;;;;25.27;13.48;;;;;;;5.05;59.46;99460.69;5267717;27;20114;-90
2023/01/21 08:57:41;;;;;;;26.23;12.80;;;;;;;5.04;59.46;99458.97;5267636;27;20060;-90
2023/01/21 09:00:07;;;;;;;26.98;14.00;;;;;;;5.13;59.46;99447.66;5267550;27;20441;-90
2023/01/21 09:02:32;;;;;;;30.35;14.43;;;;;;;5.17;59.47;99459.63;5267598;27;20075;-91
2023/01/21 09:04:58;;;;;;;27.37;14.27;;;;;;;5.22;59.46;99463.88;5267754;27;20061;-90
2023/01/21 09:07:23;;;;;;;29.12;13.20;;;;;;;5.31;59.47;99459.44;5267758;27;20143;-90
2023/01/21 09:09:49;;;;;;;27.98;13.80;;;;;;;5.34;59.47;99456.81;5267748;27;20079;-90
2023/01/21 09:12:14;;;;;;;26.17;12.60;;;;;;;5.44;59.48;99458.34;5267619;27;20091;-90
2023/01/21 09:14:40;;;;;;;26.33;13.27;;;;;;;5.33;59.48;99457.69;5267635;27;20367;-90
2023/01/21 09:17:05;;;;;;;25.52;12.80;;;;;;;5.39;59.49;99462.75;5267498;27;20083;-90
2023/01/21 09:19:30;;;;;;;26.98;13.13;;;;;;;5.41;59.48;99461.84;5267619;27;20463;-90
2023/01/21 09:21:56;;;;;;;26.30;12.93;;;;;;;5.58;59.49;99459.00;5267435;27;20464;-90
2023/01/21 09:24:22;;;;;;;24.75;11.55;;;;;;;5.86;59.50;99455.06;5267404;27;20147;-90
2023/01/21 09:26:47;;;;;;;25.27;11.68;;;;;;;6.06;59.52;99454.72;5286363;27;20061;-90
2023/01/21 09:29:13;;;;;;;22.33;11.73;;;;;;;6.08;59.52;99462.47;5267310;27;20467;-90
2023/01/21 09:31:38;;;;;;;23.23;10.15;;;;;;;6.27;59.52;99461.25;5285260;27;20419;-90
2023/01/21 09:34:04;;;;;;;19.08;9.73;;;;;;;6.32;59.53;99458.56;5267415;27;20069;-90
2023/01/21 09:36:31;;;;;;;20.20;11.12;;;;;;;6.18;59.52;99453.66;5267535;27;20086;-90
2023/01/21 09:38:56;;;;;;;19.45;10.38;;;;;;;6.30;59.53;99455.16;5267559;27;20057;-90
2023/01/21 09:41:39;;;;;;;19.50;9.88;;;;;;;6.20;59.52;99463.97;5267272;27;20060;-90
2023/01/21 09:44:42;;;;;;;19.65;11.18;;;;;;;5.93;59.51;99467.91;5267199;27;20760;-90
2023/01/21 09:47:10;;;;;;;22.27;10.38;;;;;;;6.10;59.52;99466.72;5303900;27;20073;-91
2023/01/21 09:49:40;;;;;;;22.80;10.60;;;;;;;6.32;59.53;99463.72;5286456;27;20059;-90
2023/01/21 09:52:43;;;;;;;19.83;10.43;;;;;;;6.08;59.52;99460.72;5285864;27;20223;-90
2023/01/21 09:55:27;;;;;;;18.55;9.57;;;;;;;5.74;59.49;99463.03;5303920;27;20064;-91
2023/01/21 09:58:04;;;;;;;23.65;11.35;;;;;;;5.86;59.51;99459.37;5268473;27;20061;-90
2023/01/21 10:00:32;;;;;;;25.52;13.52;;;;;;;5.83;59.51;99462.88;5303420;27;20067;-90
2023/01/21 10:03:20;;;;;;;23.45;11.65;;;;;;;5.78;59.50;99467.25;5285615;27;20453;-90
2023/01/21 10:05:55;;;;;;;20.27;10.23;;;;;;;5.88;59.50;99473.09;5285621;27;20413;-90
2023/01/21 10:08:41;;;;;;;19.75;10.60;;;;;;;5.82;59.50;99473.22;5285185;27;20052;-91
2023/01/21 10:11:14;;;;;;;21.05;11.75;;;;;;;5.71;59.50;99464.81;5303492;27;20045;-92
2023/01/21 10:14:00;;;;;;;23.45;12.02;;;;;;;5.63;59.49;99466.66;5285273;27;20080;-91
2023/01/21 10:16:47;;;;;;;42.78;24.37;;;;;;;5.76;59.50;99468.16;5285203;27;20392;-90
2023/01/21 10:19:16;;;;;;;30.15;14.35;;;;;;;5.92;59.51;99463.62;5304900;27;20045;-91
2023/01/21 10:21:47;;;;;;;23.02;11.90;;;;;;;6.08;59.52;99465.03;5267380;27;20063;-91
2023/01/21 10:24:28;;;;;;;23.80;11.85;;;;;;;5.91;59.51;99467.06;5285037;27;20082;-91
2023/01/21 10:26:53;;;;;;;24.02;11.82;;;;;;;5.94;59.51;99472.22;5267401;27;20417;-92
2023/01/21 10:29:22;;;;;;;23.35;11.30;;;;;;;5.98;59.51;99474.69;5266964;27;20098;-91
2023/01/21 10:32:19;;;;;;;23.85;11.20;;;;;;;6.13;59.51;99468.37;5266877;27;20057;-92
2023/01/21 10:34:54;;;;;;;22.62;10.63;;;;;;;6.03;59.51;99479.78;5273828;27;253403;-92
2023/01/21 10:37:31;;;;;;;20.65;10.75;;;;;;;5.77;59.50;99480.19;5267509;27;20033;-91
2023/01/21 10:40:16;;;;;;;22.17;10.00;;;;;;;5.89;59.50;99473.97;5285890;27;20108;-91
2023/01/21 10:42:47;;;;;;;20.23;9.23;;;;;;;6.06;59.52;99482.31;5269489;27;20041;-92
2023/01/21 10:45:26;;;;;;;21.98;10.90;;;;;;;5.95;59.51;99474.75;5304100;27;20084;-92
2023/01/21 10:48:11;;;;;;;19.92;10.10;;;;;;;5.94;59.51;99472.22;5269708;27;20033;-92
2023/01/21 10:50:41;;;;;;;21.77;10.68;;;;;;;5.81;59.50;99487.88;5304265;27;20129;-92
2023/01/21 10:53:25;;;;;;;22.65;10.73;;;;;;;5.78;59.51;99484.50;5285947;27;20074;-92
2023/01/21 10:56:38;;;;;;;20.77;10.45;;;;;;;5.79;59.50;99479.28;5286266;27;20061;-91
2023/01/21 10:59:06;;;;;;;21.30;10.85;;;;;;;5.86;59.50;99486.06;5286081;27;20049;-91
2023/01/21 11:01:36;;;;;;;20.27;10.35;;;;;;;5.85;59.50;99481.75;5268633;27;20053;-92
2023/01/21 11:04:14;;;;;;;22.87;11.10;;;;;;;5.80;59.50;99480.16;5268540;27;20115;-91
2023/01/21 11:06:39;;;;;;;19.27;10.13;;;;;;;5.62;59.50;99478.72;5268490;27;20030;-91
2023/01/21 11:09:06;;;;;;;18.40;9.13;;;;;;;5.81;59.50;99474.09;5267904;27;20074;-92
2023/01/21 11:11:36;;;;;;;21.98;9.60;;;;;;;5.75;59.49;99474.22;5267897;27;20072;-91
2023/01/21 11:14:01;;;;;;;21.67;10.05;;;;;;;5.90;59.51;99476.53;5268466;27;20045;-92
2023/01/21 11:16:43;;;;;;;19.25;9.82;;;;;;;5.96;59.51;99473.03;5267774;27;20080;-92
2023/01/21 11:19:28;;;;;;;21.05;10.77;;;;;;;6.00;59.51;99477.25;5270224;27;20426;-92
2023/01/21 11:22:05;;;;;;;22.37;11.80;;;;;;;5.98;59.50;99473.84;5269804;27;20766;-92
2023/01/21 11:24:50;;;;;;;28.62;13.00;;;;;;;5.98;59.50;99473.84;5268686;27;20048;-91
2023/01/21 11:27:33;;;;;;;25.58;12.18;;;;;;;5.85;59.50;99471.44;5268559;27;20091;-92
2023/01/21 11:30:00;;;;;;;23.30;11.45;;;;;;;5.80;59.50;99465.50;5268804;27;20049;-91
2023/01/21 11:32:27;;;;;;;25.75;12.30;;;;;;;5.94;59.51;99472.22;5267747;27;20017;-91
2023/01/21 11:35:19;;;;;;;23.80;11.52;;;;;;;5.92;59.51;99468.81;5268686;27;20041;-92
2023/01/21 11:37:48;;;;;;;22.73;11.30;;;;;;;6.07;59.52;99463.34;5286565;27;20067;-93
2023/01/21 11:40:20;;;;;;;25.48;12.65;;;;;;;6.01;59.51;99466.91;5267819;27;20072;-92
2023/01/21 11:42:49;;;;;;;19.35;9.77;;;;;;;6.03;59.51;99462.53;5267769;27;20067;-91
2023/01/21 11:45:50;;;;;;;;;;;;;;;;;;;;;
2023/01/21 11:48:22;;;;;;;19.42;9.73;;;;;;;6.06;59.52;99459.91;5290580;27;35647;-91
2023/01/21 11:50:47;;;;;;;22.95;11.40;;;;;;;6.03;59.51;99451.34;5268318;27;20114;-92
2023/01/21 11:53:16;;;;;;;25.15;11.68;;;;;;;5.96;59.51;99460.97;5267819;27;20064;-92
2023/01/21 11:55:53;;;;;;;19.52;10.23;;;;;;;5.94;59.51;99454.13;5269173;27;20070;-92
2023/01/21 11:58:24;;;;;;;23.65;10.48;;;;;;;6.02;59.51;99453.09;5267902;27;20075;-91
2023/01/21 12:00:51;;;;;;;16.73;9.52;;;;;;;6.17;59.52;99453.69;5285677;27;20074;-92
2023/01/21 12:03:19;;;;;;;19.83;9.38;;;;;;;6.15;59.52;99457.16;5268165;27;20119;-93
2023/01/21 12:05:48;;;;;;;16.85;9.48;;;;;;;6.19;59.52;99464.84;5267739;27;20119;-92
2023/01/21 12:08:20;;;;;;;22.73;11.00;;;;;;;6.25;59.52;99463.00;5267725;27;20131;-92
2023/01/21 12:10:54;;;;;;;21.58;9.98;;;;;;;6.00;59.51;99469.50;5268005;27;20061;-92
2023/01/21 12:13:42;;;;;;;17.52;8.52;;;;;;;6.22;59.52;99467.37;5269136;27;20105;-93
2023/01/21 12:16:19;;;;;;;16.10;9.10;;;;;;;6.27;59.52;99461.25;5303887;27;20067;-92
2023/01/21 12:18:54;;;;;;;18.23;9.50;;;;;;;6.07;59.52;99465.91;5303955;27;20061;-92
2023/01/21 12:21:33;;;;;;;22.42;10.63;;;;;;;6.18;59.52;99474.34;5303980;27;20064;-92
2023/01/21 12:24:12;;;;;;;23.58;10.23;;;;;;;6.12;59.51;99471.84;5286857;27;20059;-92
2023/01/21 12:26:44;;;;;;;22.02;10.77;;;;;;;6.12;59.51;99471.84;5285726;27;20045;-92